Flag for USA

Past Weather in 30°10'43.6"N, 85°48'09.0"W, USA — Yesterday and Last 2 Weeks

Currently: 67 °F. Sunny. (Weather station: Tyndall Air Force Base, USA). See more current weather

Past Weather in 30°10'43.6"N, 85°48'09.0"W — Graph

°F

30°10'43.6"N, 85°48'09.0"W Temperature Yesterday

Maximum temperature yesterday: 72 °F (at 12:55 pm)
Minimum temperature yesterday: 46 °F (at 2:10 am)
Average temperature yesterday: 59 °F

High & Low Weather Summary for the Past Weeks

 TemperatureHumidityPressure
High72 °F (Feb 26, 12:55 pm)100% (Feb 26, 3:00 am)30.33 "Hg (Feb 26, 3:00 am)
Low42 °F (Feb 19, 4:55 am)22% (Feb 21, 11:55 am)29.68 "Hg (Feb 12, 6:30 am)
Average57 °F71%30.06 "Hg
* Reported Feb 12 6:30 am — Feb 27 6:55 am, 30°10'43.6"N, 85°48'09.0"W. Weather by CustomWeather, © 2024

Note: Actual official high and low records may vary slightly from our data, if they occured in-between our weather recording intervals... More about our weather records

30°10'43.6"N, 85°48'09.0"W Weather History for the Previous 24 Hours

Scroll right to see more
 ConditionsComfort  
Time TempWeatherWind HumidityBarometerVisibility
6:55 am
Tue, Feb 27
67 °FSunny.17 mph86%30.03 "Hg10 mi
5:55 am66 °FSunny.16 mph88%30.03 "Hg10 mi
5:15 am66 °FScattered clouds.13 mph88%30.03 "Hg10 mi
4:55 am66 °FPassing clouds.14 mph87%30.03 "Hg10 mi
4:15 am66 °FPassing clouds.13 mph88%30.03 "Hg10 mi
3:55 am65 °FPassing clouds.15 mph87%30.02 "Hg10 mi
2:55 am65 °FPassing clouds.13 mph86%30.03 "Hg10 mi
1:55 am65 °FPassing clouds.12 mph85%30.04 "Hg10 mi
12:55 am65 °FPassing clouds.15 mph83%30.05 "Hg10 mi
12:30 am64 °FPassing clouds.15 mph88%30.05 "Hg10 mi
11:55 pm
Mon, Feb 26
64 °FClear.16 mph85%30.06 "Hg10 mi
10:55 pm64 °FClear.13 mph86%30.08 "Hg10 mi
9:55 pm64 °FClear.14 mph86%30.08 "Hg10 mi
8:55 pm65 °FClear.13 mph85%30.09 "Hg10 mi
7:55 pm64 °FClear.14 mph85%30.09 "Hg10 mi
6:55 pm64 °FPassing clouds.13 mph87%30.08 "Hg10 mi
4:55 pm67 °FClear.16 mph82%30.09 "Hg10 mi
3:55 pm69 °FSunny.17 mph69%30.11 "Hg10 mi
2:55 pm71 °FSunny.17 mph53%30.12 "Hg10 mi
1:55 pm71 °FSunny.18 mph50%30.13 "Hg10 mi
12:55 pm72 °FSunny.18 mph50%30.15 "Hg10 mi
11:55 am71 °FSunny.17 mph46%30.17 "Hg10 mi
10:55 am71 °FSunny.15 mph42%30.20 "Hg10 mi
9:55 am69 °FSunny.12 mph49%30.17 "Hg10 mi
8:55 am63 °FSunny.8 mph73%30.17 "Hg10 mi
Weather by CustomWeather, © 2024

See weather overview